Česky Dansk Deutsch English Español Suomi Français Magyar Italiano Nederlands norsk Polski Português svenska Türkçe

 

Het Weer

Mae Hong Son (Thailand)

10:00, 16 August 2016 (GMT)

NWNNE
WE
SWSSE
Home            
Mae Hong Son Mae Sariang Chiang Mai Lampang Chiang Rai Meiktila Phrae Prome Hpa-An Kengtung Mae Sot Tak Uttaradit Moulmein Nan Mingaladon Yangon Mandalay Sandoway Phitsanulok Lashio Sayaboury Pathein

Om een weerknop op uw website of weblog te plaatsen, copieer onderstaande code en plak die in uw pagina. In het eerste vakje staat HTML-code, in het tweede vakje UBB-code.


Add to Google

Details

Wind speed:1 bf, 3 kn, 1.5 m/s, 3.5 miles/h, 5.6 km/h
Wind direction:NW, 310° - ENE, 070°
Sichtweite: 5000 m, 5.0 km, 16404 ft, 3.1 miles
Clouds:Ein wenig bewölkt at 1200 ft, 366 m
Durchbrochene Bewölkung at 2500 ft, 762 m
Het Weer:leicht Regen
Temperatur:25°C, 77°F
Gefühlte Temperatur:26°C, 78°F
Taupunkt:23°C, 73°F
Luftdruck:1002 hPa, 751.6 mmHg, 29.59 inHg, 0.989 atm
Relative Luftfeuchtigkeit:88.7 %
METAR:VTCH 161000Z 02003KT 310V070 5000 -RA FEW012 BKN025 25/23 Q1002 A2959

Snelkoppelingen

Actuele weersinformatie van de hele wereld. Voeg locaties toe met het plus (+) symbool. Deze snelkoppelingen kunnen worden toegevoegd aan Google.

Lid van de Technetium groep

website free tracking
StatCounter NetStat W3C Validator

12-08-2020 12:10:29
astro.technetium.be money.technetium.be phote.technetium.be tafeltennistafel.technetium.be www.ligfiets.net